createdAt,value
2017-08-30T00:00:43.787Z,12.23
2017-08-30T00:03:12.136Z,11.23
2017-08-30T00:05:40.453Z,11.23
2017-08-30T00:08:08.781Z,10.90
2017-08-30T00:10:37.122Z,11.43
2017-08-30T00:13:05.423Z,13.20
2017-08-30T00:15:33.760Z,12.80
2017-08-30T00:18:02.075Z,12.20
2017-08-30T00:20:30.414Z,12.60
2017-08-30T00:22:58.721Z,11.73
2017-08-30T00:25:38.789Z,11.70
2017-08-30T00:28:07.109Z,13.33
2017-08-30T00:30:35.442Z,11.90
2017-08-30T00:33:03.797Z,12.10
2017-08-30T00:35:32.143Z,12.30
2017-08-30T00:38:00.468Z,12.43
2017-08-30T00:40:28.773Z,11.60
2017-08-30T00:42:58.066Z,10.77
2017-08-30T00:45:26.384Z,13.10
2017-08-30T00:47:54.739Z,13.53
2017-08-30T00:50:23.060Z,11.37
2017-08-30T00:52:51.384Z,11.40
2017-08-30T00:55:19.706Z,11.30
2017-08-30T00:57:48.043Z,12.23
2017-08-30T01:00:16.352Z,11.60
2017-08-30T01:02:44.712Z,11.40
2017-08-30T01:05:13.045Z,11.90
2017-08-30T01:07:41.362Z,11.23
2017-08-30T01:10:09.699Z,11.53
2017-08-30T01:12:38.021Z,11.73
2017-08-30T01:15:06.375Z,11.00
2017-08-30T01:17:35.461Z,12.37
2017-08-30T01:20:03.800Z,12.10
2017-08-30T01:22:32.114Z,12.37
2017-08-30T01:25:00.452Z,12.00
2017-08-30T01:27:28.766Z,11.23
2017-08-30T01:29:57.099Z,10.33
2017-08-30T01:32:25.414Z,11.43
2017-08-30T01:34:53.731Z,11.90
2017-08-30T01:37:22.069Z,11.97
2017-08-30T01:39:50.387Z,11.50
2017-08-30T01:42:18.727Z,11.40
2017-08-30T01:44:47.045Z,12.43
2017-08-30T01:47:15.378Z,11.63
2017-08-30T01:49:43.691Z,11.13
2017-08-30T01:52:12.023Z,11.87
2017-08-30T01:54:40.331Z,11.23
2017-08-30T01:57:08.677Z,11.37
2017-08-30T01:59:37.008Z,13.03
2017-08-30T02:02:05.323Z,12.17
2017-08-30T02:04:33.654Z,12.97
2017-08-30T02:07:02.844Z,12.50
2017-08-30T02:09:31.185Z,11.33
2017-08-30T02:11:59.510Z,11.70
2017-08-30T02:14:27.851Z,12.03
2017-08-30T02:16:56.222Z,12.87
2017-08-30T02:19:24.557Z,11.97
2017-08-30T02:21:52.874Z,11.70
2017-08-30T02:24:21.209Z,12.37
2017-08-30T02:26:49.507Z,12.10
2017-08-30T02:29:17.850Z,12.07
2017-08-30T02:31:46.180Z,12.53
2017-08-30T02:34:14.490Z,11.80
2017-08-30T02:36:42.824Z,12.90
2017-08-30T02:39:11.142Z,11.70
2017-08-30T02:41:39.489Z,12.43
2017-08-30T02:44:07.811Z,12.33
2017-08-30T02:46:36.154Z,12.60
2017-08-30T02:49:04.481Z,11.73
2017-08-30T02:51:32.841Z,13.00
2017-08-30T02:54:01.174Z,11.97
2017-08-30T02:56:29.499Z,12.17
2017-08-30T02:58:57.960Z,13.40
2017-08-30T03:01:26.281Z,11.53
2017-08-30T03:06:54.473Z,12.80
2017-08-30T03:09:22.805Z,12.10
2017-08-30T03:11:51.133Z,12.90
2017-08-30T03:14:19.492Z,11.53
2017-08-30T03:16:47.805Z,12.33
2017-08-30T03:19:16.152Z,12.43
2017-08-30T03:21:44.462Z,12.63
2017-08-30T03:24:12.769Z,14.47
2017-08-30T03:26:41.100Z,12.67
2017-08-30T03:29:09.418Z,13.90
2017-08-30T03:31:37.817Z,13.50
2017-08-30T03:34:06.138Z,13.97
2017-08-30T03:36:34.481Z,14.40
2017-08-30T03:39:02.794Z,12.97
2017-08-30T03:41:31.133Z,11.83
2017-08-30T03:43:59.455Z,13.80
2017-08-30T03:46:27.799Z,12.30
2017-08-30T03:48:56.116Z,13.13
2017-08-30T03:51:24.420Z,13.03
2017-08-30T03:53:52.760Z,12.90
2017-08-30T03:56:21.076Z,13.33
2017-08-30T03:58:49.421Z,11.70
2017-08-30T04:01:17.732Z,12.43
2017-08-30T04:03:46.066Z,12.50
2017-08-30T04:06:14.373Z,12.30
2017-08-30T04:08:42.701Z,11.67
2017-08-30T04:11:11.016Z,13.10
2017-08-30T04:13:39.362Z,13.50
2017-08-30T04:16:07.667Z,12.03
2017-08-30T04:18:35.985Z,12.57
2017-08-30T04:21:04.325Z,13.53
2017-08-30T04:23:32.632Z,13.67
2017-08-30T04:26:00.969Z,13.60
2017-08-30T04:28:29.276Z,12.20
2017-08-30T04:30:57.614Z,12.80
2017-08-30T04:33:25.920Z,13.57
2017-08-30T04:35:54.257Z,13.70
2017-08-30T04:38:22.575Z,13.33
2017-08-30T04:40:50.885Z,12.60
2017-08-30T04:43:19.216Z,12.67
2017-08-30T04:45:47.521Z,13.10
2017-08-30T04:48:15.853Z,13.63
2017-08-30T04:50:44.167Z,12.10
2017-08-30T04:53:12.503Z,13.50
2017-08-30T04:55:40.823Z,12.60
2017-08-30T04:58:09.161Z,14.07
2017-08-30T05:00:37.468Z,14.13
2017-08-30T05:03:05.820Z,14.27
2017-08-30T05:05:34.138Z,13.40
2017-08-30T05:08:02.464Z,13.30
2017-08-30T05:10:30.792Z,12.20
2017-08-30T05:12:59.111Z,12.73
2017-08-30T05:15:30.640Z,10.50
2017-08-30T05:17:58.966Z,11.50
2017-08-30T05:20:27.309Z,11.73
2017-08-30T05:22:55.629Z,11.30
2017-08-30T05:25:24.078Z,11.00
2017-08-30T05:27:52.481Z,10.70
2017-08-30T05:30:20.814Z,11.10
2017-08-30T05:32:49.181Z,10.37
2017-08-30T05:35:17.572Z,11.30
2017-08-30T05:37:45.890Z,10.40
2017-08-30T05:40:14.209Z,10.30
2017-08-30T05:42:42.548Z,9.67
2017-08-30T05:45:10.856Z,10.40
2017-08-30T05:47:39.206Z,11.90
2017-08-30T05:50:07.521Z,11.97
2017-08-30T05:52:35.861Z,11.97
2017-08-30T05:55:04.175Z,11.53
2017-08-30T05:57:32.514Z,9.70
2017-08-30T06:00:00.828Z,10.50
2017-08-30T06:02:36.164Z,11.87
2017-08-30T06:05:04.504Z,10.13
2017-08-30T06:07:32.864Z,12.40
2017-08-30T06:10:01.181Z,12.17
2017-08-30T06:12:29.521Z,12.27
2017-08-30T06:14:57.874Z,11.93
2017-08-30T06:17:26.183Z,13.50
2017-08-30T06:19:54.541Z,12.97
2017-08-30T06:22:22.856Z,14.80
2017-08-30T06:24:51.194Z,14.60
2017-08-30T06:27:19.501Z,15.87
2017-08-30T06:29:47.836Z,15.00
2017-08-30T06:32:16.157Z,15.07
2017-08-30T06:34:44.508Z,16.00
2017-08-30T06:37:12.816Z,14.37
2017-08-30T06:39:41.152Z,15.57
2017-08-30T06:42:09.481Z,14.17
2017-08-30T06:44:37.798Z,14.00
2017-08-30T06:47:06.153Z,13.73
2017-08-30T06:49:34.460Z,14.53
2017-08-30T06:52:02.782Z,13.40
2017-08-30T06:54:31.115Z,14.17
2017-08-30T06:56:59.454Z,14.70
2017-08-30T06:59:27.761Z,13.80
2017-08-30T07:01:56.103Z,12.60
2017-08-30T07:04:25.176Z,13.80
2017-08-30T07:06:53.517Z,15.03
2017-08-30T07:09:21.850Z,13.27
2017-08-30T07:14:51.180Z,13.80
2017-08-30T07:17:19.517Z,13.07
2017-08-30T07:19:47.828Z,12.30
2017-08-30T07:22:16.175Z,12.00
2017-08-30T07:24:44.501Z,11.10
2017-08-30T07:27:12.822Z,11.20
2017-08-30T07:29:41.161Z,11.47
2017-08-30T07:32:09.480Z,11.20
2017-08-30T07:34:37.812Z,12.10
2017-08-30T07:37:06.132Z,11.87
2017-08-30T07:39:34.471Z,12.73
2017-08-30T07:42:02.810Z,12.87
2017-08-30T07:44:31.161Z,12.00
2017-08-30T07:46:59.522Z,11.30
2017-08-30T07:49:27.875Z,11.90
2017-08-30T07:51:56.176Z,11.97
2017-08-30T07:54:24.512Z,10.03
2017-08-30T07:56:52.819Z,10.77
2017-08-30T07:59:21.152Z,10.73
2017-08-30T08:01:49.472Z,10.00
2017-08-30T08:04:17.790Z,11.40
2017-08-30T08:06:46.113Z,10.73
2017-08-30T08:09:14.428Z,11.10
2017-08-30T08:11:42.759Z,8.47
2017-08-30T08:14:11.069Z,8.77
2017-08-30T08:16:40.157Z,8.57
2017-08-30T08:19:08.464Z,7.53
2017-08-30T08:21:36.789Z,7.73
2017-08-30T08:24:05.094Z,7.33
2017-08-30T08:26:33.433Z,7.20
2017-08-30T08:29:01.750Z,7.17
2017-08-30T08:31:30.081Z,6.90
2017-08-30T08:33:58.380Z,7.80
2017-08-30T08:36:26.706Z,7.20
2017-08-30T08:38:55.072Z,7.20
2017-08-30T08:41:23.409Z,6.97
2017-08-30T08:43:51.712Z,7.70
2017-08-30T08:46:20.018Z,7.07
2017-08-30T08:48:48.341Z,6.53
2017-08-30T08:51:16.646Z,7.17
2017-08-30T08:53:44.977Z,7.70
2017-08-30T08:56:13.285Z,6.40
2017-08-30T08:58:41.619Z,6.97
2017-08-30T09:01:09.922Z,7.70
2017-08-30T09:03:38.262Z,7.40
2017-08-30T09:06:06.569Z,7.43
2017-08-30T09:08:34.896Z,7.50
2017-08-30T09:11:03.195Z,6.77
2017-08-30T09:13:31.549Z,7.00
2017-08-30T09:16:00.625Z,7.80
2017-08-30T09:18:28.933Z,6.67
2017-08-30T09:20:57.262Z,7.43
2017-08-30T09:23:25.584Z,7.70
2017-08-30T09:25:53.901Z,6.83
2017-08-30T09:28:22.267Z,6.70
2017-08-30T09:30:50.593Z,7.93
2017-08-30T09:33:18.899Z,6.90
2017-08-30T09:35:47.998Z,7.00
2017-08-30T09:38:16.313Z,6.97
2017-08-30T09:40:44.637Z,6.77
2017-08-30T09:43:12.942Z,6.87
2017-08-30T09:45:41.268Z,6.97
2017-08-30T09:48:09.559Z,6.70
2017-08-30T09:50:37.873Z,6.80
2017-08-30T09:53:06.218Z,6.80
2017-08-30T09:55:34.541Z,6.50
2017-08-30T09:58:02.873Z,7.27
2017-08-30T10:00:31.182Z,6.70
2017-08-30T10:02:59.514Z,7.20
2017-08-30T10:05:27.817Z,7.50
2017-08-30T10:07:56.149Z,7.10
2017-08-30T10:10:24.455Z,6.40
2017-08-30T10:12:52.789Z,5.77
2017-08-30T10:15:21.083Z,5.97
2017-08-30T10:17:49.396Z,6.57
2017-08-30T10:20:17.721Z,6.40
2017-08-30T10:22:46.075Z,6.20
2017-08-30T10:25:14.389Z,5.90
2017-08-30T10:27:42.692Z,6.30
2017-08-30T10:30:11.014Z,6.27
2017-08-30T10:32:39.323Z,6.33
2017-08-30T10:35:07.648Z,6.53
2017-08-30T10:37:35.961Z,7.10
2017-08-30T10:40:04.305Z,6.60
2017-08-30T10:42:32.609Z,5.13
2017-08-30T10:45:00.960Z,6.47
2017-08-30T10:47:29.260Z,5.63
2017-08-30T10:49:57.594Z,5.43
2017-08-30T10:52:25.906Z,5.43
2017-08-30T10:54:54.232Z,5.80
2017-08-30T10:57:22.536Z,4.87
2017-08-30T10:59:50.844Z,5.10
2017-08-30T11:02:19.157Z,5.50
2017-08-30T11:04:47.465Z,6.03
2017-08-30T11:07:15.802Z,6.40
2017-08-30T11:09:44.120Z,5.97
2017-08-30T11:12:12.440Z,5.10
2017-08-30T11:14:40.754Z,5.60
2017-08-30T11:17:09.099Z,5.97
2017-08-30T11:19:37.435Z,5.17
2017-08-30T11:22:05.774Z,5.03
2017-08-30T11:24:34.089Z,4.67
2017-08-30T11:27:03.176Z,4.80
2017-08-30T11:29:31.476Z,5.00
2017-08-30T11:31:59.795Z,5.20
2017-08-30T11:34:28.096Z,4.97
2017-08-30T11:36:56.426Z,4.27
2017-08-30T11:39:24.733Z,4.80
2017-08-30T11:41:53.033Z,4.40
2017-08-30T11:44:21.364Z,5.00
2017-08-30T11:46:49.676Z,5.03
2017-08-30T11:49:18.002Z,4.47
2017-08-30T11:51:46.305Z,4.33
2017-08-30T11:54:14.627Z,4.50
2017-08-30T11:56:42.932Z,6.60
2017-08-30T11:59:11.270Z,5.00
2017-08-30T12:01:39.579Z,5.20
2017-08-30T12:04:07.908Z,4.70
2017-08-30T12:06:36.223Z,5.17
2017-08-30T12:09:04.557Z,6.27
2017-08-30T12:11:32.862Z,5.00
2017-08-30T12:14:01.170Z,5.53
2017-08-30T12:16:29.514Z,5.50
2017-08-30T12:18:57.823Z,5.50
2017-08-30T12:21:26.170Z,6.20
2017-08-30T12:23:54.473Z,5.57
2017-08-30T12:26:22.801Z,5.80
2017-08-30T12:28:51.112Z,5.10
2017-08-30T12:31:19.437Z,6.03
2017-08-30T12:33:47.757Z,5.23
2017-08-30T12:36:16.088Z,6.00
2017-08-30T12:41:49.125Z,5.70
2017-08-30T12:44:17.437Z,6.20
2017-08-30T12:46:45.768Z,6.60
2017-08-30T12:49:14.849Z,6.10
2017-08-30T12:51:43.185Z,5.50
2017-08-30T12:54:11.497Z,6.33
2017-08-30T12:56:39.833Z,5.43
2017-08-30T12:59:08.150Z,5.50
2017-08-30T13:01:39.397Z,6.00
2017-08-30T13:04:07.712Z,5.37
2017-08-30T13:06:36.043Z,6.20
2017-08-30T13:09:04.349Z,5.90
2017-08-30T13:11:32.672Z,5.10
2017-08-30T13:14:00.977Z,6.33
2017-08-30T13:16:29.291Z,5.80
2017-08-30T13:18:57.616Z,5.60
2017-08-30T13:21:25.949Z,5.60
2017-08-30T13:23:54.290Z,5.80
2017-08-30T13:26:22.597Z,5.30
2017-08-30T13:28:50.939Z,5.80
2017-08-30T13:31:19.238Z,5.37
2017-08-30T13:33:48.336Z,6.60
2017-08-30T13:36:16.658Z,5.20
2017-08-30T13:38:44.996Z,4.60
2017-08-30T13:41:13.308Z,6.30
2017-08-30T13:43:41.645Z,5.10
2017-08-30T13:46:09.954Z,5.47
2017-08-30T13:48:38.289Z,5.50
2017-08-30T13:51:06.597Z,5.40
2017-08-30T13:53:34.906Z,5.47
2017-08-30T13:56:03.232Z,6.00
2017-08-30T13:58:31.550Z,5.83
2017-08-30T14:00:59.891Z,5.97
2017-08-30T14:03:28.205Z,5.63
2017-08-30T14:05:56.538Z,5.13
2017-08-30T14:08:24.849Z,6.40
2017-08-30T14:10:53.181Z,5.73
2017-08-30T14:13:21.496Z,6.07
2017-08-30T14:15:50.600Z,7.63
2017-08-30T14:18:18.934Z,5.73
2017-08-30T14:20:47.272Z,5.60
2017-08-30T14:23:15.576Z,6.00
2017-08-30T14:25:43.921Z,5.43
2017-08-30T14:28:12.370Z,6.27
2017-08-30T14:30:40.693Z,5.37
2017-08-30T14:33:09.039Z,6.10
2017-08-30T14:35:37.348Z,5.80
2017-08-30T14:38:05.683Z,5.47
2017-08-30T14:40:33.994Z,5.50
2017-08-30T14:43:02.323Z,4.93
2017-08-30T14:45:30.630Z,6.07
2017-08-30T14:47:58.960Z,5.87
2017-08-30T14:50:27.268Z,5.17
2017-08-30T14:52:55.605Z,5.53
2017-08-30T14:55:23.923Z,5.50
2017-08-30T14:57:52.248Z,5.60
2017-08-30T15:00:20.550Z,5.17
2017-08-30T15:02:48.864Z,6.10
2017-08-30T15:05:17.937Z,5.27
2017-08-30T15:07:46.293Z,4.73
2017-08-30T15:10:14.599Z,5.33
2017-08-30T15:12:42.909Z,5.43
2017-08-30T15:15:11.237Z,5.43
2017-08-30T15:17:39.550Z,4.93
2017-08-30T15:20:08.653Z,5.50
2017-08-30T15:22:36.974Z,5.30
2017-08-30T15:25:05.297Z,5.63
2017-08-30T15:27:33.611Z,5.00
2017-08-30T15:30:01.949Z,5.57
2017-08-30T15:32:32.188Z,6.53
2017-08-30T15:35:00.514Z,5.67
2017-08-30T15:37:28.846Z,4.90
2017-08-30T15:40:07.725Z,5.80
2017-08-30T15:42:36.028Z,4.97
2017-08-30T15:45:04.359Z,5.63
2017-08-30T15:47:32.678Z,5.60
2017-08-30T15:50:01.008Z,5.10
2017-08-30T15:52:29.318Z,5.40
2017-08-30T15:54:57.657Z,5.07
2017-08-30T15:57:25.985Z,6.00
2017-08-30T15:59:54.292Z,5.50
2017-08-30T16:02:22.611Z,6.30
2017-08-30T16:04:50.938Z,5.47
2017-08-30T16:07:19.260Z,5.30
2017-08-30T16:09:47.581Z,6.17
2017-08-30T16:12:15.918Z,6.60
2017-08-30T16:14:44.238Z,5.57
2017-08-30T16:17:12.575Z,5.23
2017-08-30T16:19:40.906Z,5.57
2017-08-30T16:22:09.238Z,5.60
2017-08-30T16:24:37.548Z,5.63
2017-08-30T16:27:05.886Z,5.00
2017-08-30T16:29:34.188Z,5.60
2017-08-30T16:32:02.525Z,6.30
2017-08-30T16:34:30.846Z,5.67
2017-08-30T16:36:59.153Z,5.73
2017-08-30T16:39:27.480Z,5.30
2017-08-30T16:41:58.819Z,5.30
2017-08-30T16:44:27.151Z,5.80
2017-08-30T16:46:55.469Z,6.00
2017-08-30T16:49:27.035Z,5.63
2017-08-30T16:51:55.344Z,6.73
2017-08-30T16:54:23.674Z,5.93
2017-08-30T16:56:51.973Z,6.60
2017-08-30T16:59:20.292Z,5.90
2017-08-30T17:01:48.592Z,5.50
2017-08-30T17:04:16.933Z,5.97
2017-08-30T17:06:45.238Z,6.70
2017-08-30T17:09:13.551Z,6.10
2017-08-30T17:11:41.873Z,5.93
2017-08-30T17:14:10.189Z,6.43
2017-08-30T17:16:38.534Z,6.70
2017-08-30T17:19:06.843Z,6.13
2017-08-30T17:21:35.168Z,6.03
2017-08-30T17:24:03.475Z,6.83
2017-08-30T17:26:31.796Z,6.57
2017-08-30T17:29:00.117Z,6.47
2017-08-30T17:31:28.447Z,6.50
2017-08-30T17:33:56.807Z,7.23
2017-08-30T17:36:25.140Z,6.33
2017-08-30T17:38:53.453Z,6.70
2017-08-30T17:41:21.785Z,7.60
2017-08-30T17:43:50.098Z,7.00
2017-08-30T17:46:18.453Z,6.67
2017-08-30T17:48:46.783Z,6.53
2017-08-30T17:51:15.098Z,6.37
2017-08-30T17:53:43.429Z,6.10
2017-08-30T17:56:11.755Z,7.77
2017-08-30T17:58:40.072Z,7.07
2017-08-30T18:01:09.151Z,6.43
2017-08-30T18:03:37.490Z,7.50
2017-08-30T18:06:05.798Z,6.83
2017-08-30T18:08:34.128Z,6.77
2017-08-30T18:11:02.437Z,7.03
2017-08-30T18:13:30.774Z,6.50
2017-08-30T18:15:59.089Z,7.23
2017-08-30T18:18:27.435Z,7.50
2017-08-30T18:20:55.746Z,7.07
2017-08-30T18:23:24.062Z,7.20
2017-08-30T18:25:52.409Z,7.10
2017-08-30T18:28:20.712Z,7.40
2017-08-30T18:30:49.048Z,7.30
2017-08-30T18:33:17.361Z,6.73
2017-08-30T18:35:45.694Z,7.90
2017-08-30T18:38:14.002Z,7.53
2017-08-30T18:40:42.337Z,7.77
2017-08-30T18:43:10.649Z,6.73
2017-08-30T18:45:38.977Z,6.60
2017-08-30T18:48:07.294Z,6.50
2017-08-30T18:50:35.636Z,8.07
2017-08-30T18:53:03.933Z,7.20
2017-08-30T18:55:32.278Z,6.47
2017-08-30T19:01:01.205Z,6.60
2017-08-30T19:03:29.516Z,7.30
2017-08-30T19:05:57.861Z,7.10
2017-08-30T19:08:26.175Z,7.10
2017-08-30T19:10:54.505Z,7.90
2017-08-30T19:13:22.811Z,7.20
2017-08-30T19:15:51.151Z,7.30
2017-08-30T19:18:19.463Z,7.40
2017-08-30T19:20:47.808Z,7.10
2017-08-30T19:23:16.131Z,6.90
2017-08-30T19:25:44.454Z,6.70
2017-08-30T19:28:12.785Z,7.27
2017-08-30T19:30:41.102Z,7.70
2017-08-30T19:33:09.449Z,7.20
2017-08-30T19:35:37.780Z,7.17
2017-08-30T19:38:06.121Z,7.50
2017-08-30T19:40:34.427Z,6.97
2017-08-30T19:43:02.764Z,7.00
2017-08-30T19:45:31.065Z,7.00
2017-08-30T19:47:59.406Z,6.97
2017-08-30T19:50:29.617Z,7.27
2017-08-30T19:52:57.924Z,8.27
2017-08-30T19:55:26.265Z,8.17
2017-08-30T19:57:54.621Z,8.30
2017-08-30T20:00:22.922Z,7.53
2017-08-30T20:02:51.241Z,7.87
2017-08-30T20:05:19.564Z,7.30
2017-08-30T20:07:47.876Z,7.43
2017-08-30T20:10:16.218Z,7.97
2017-08-30T20:12:44.533Z,6.97
2017-08-30T20:15:12.877Z,7.80
2017-08-30T20:17:41.189Z,7.90
2017-08-30T20:20:09.526Z,6.30
2017-08-30T20:22:37.850Z,8.00
2017-08-30T20:25:06.180Z,7.40
2017-08-30T20:27:34.490Z,7.47
2017-08-30T20:32:56.032Z,7.90
2017-08-30T20:35:24.337Z,7.23
2017-08-30T20:37:52.675Z,8.43
2017-08-30T20:40:21.009Z,7.60
2017-08-30T20:42:49.343Z,7.67
2017-08-30T20:45:17.659Z,7.57
2017-08-30T20:47:45.994Z,8.27
2017-08-30T20:50:14.312Z,7.90
2017-08-30T20:52:45.702Z,8.83
2017-08-30T20:55:14.007Z,9.37
2017-08-30T20:57:42.325Z,7.93
2017-08-30T21:00:10.660Z,8.30
2017-08-30T21:02:38.981Z,7.73
2017-08-30T21:05:07.304Z,6.63
2017-08-30T21:07:35.613Z,6.70
2017-08-30T21:10:03.951Z,6.80
2017-08-30T21:12:32.261Z,6.53
2017-08-30T21:15:00.587Z,6.23
2017-08-30T21:17:28.892Z,6.07
2017-08-30T21:19:57.226Z,7.10
2017-08-30T21:22:29.025Z,7.37
2017-08-30T21:24:57.345Z,7.30
2017-08-30T21:27:25.658Z,6.63
2017-08-30T21:29:53.989Z,6.67
2017-08-30T21:32:22.295Z,6.33
2017-08-30T21:34:50.634Z,6.33
2017-08-30T21:37:18.938Z,6.20
2017-08-30T21:39:47.261Z,4.70
2017-08-30T21:42:15.570Z,5.53
2017-08-30T21:44:43.911Z,4.60
2017-08-30T21:47:12.237Z,5.13
2017-08-30T21:49:40.562Z,5.23
2017-08-30T21:52:08.856Z,4.70
2017-08-30T21:54:37.211Z,3.60
2017-08-30T21:57:05.515Z,4.67
2017-08-30T21:59:33.857Z,4.50
2017-08-30T22:02:02.168Z,3.93
2017-08-30T22:04:30.517Z,4.80
2017-08-30T22:06:58.836Z,4.73
2017-08-30T22:09:27.149Z,4.20
2017-08-30T22:11:55.480Z,3.90
2017-08-30T22:14:23.790Z,4.93
2017-08-30T22:16:52.128Z,4.30
2017-08-30T22:19:20.477Z,5.00
2017-08-30T22:21:48.804Z,4.23
2017-08-30T22:24:17.113Z,4.83
2017-08-30T22:26:45.452Z,4.73
2017-08-30T22:29:13.770Z,4.30
2017-08-30T22:31:42.091Z,4.20
2017-08-30T22:34:10.429Z,4.53
2017-08-30T22:36:38.760Z,5.17
2017-08-30T22:39:07.093Z,3.87
2017-08-30T22:41:35.417Z,4.20
2017-08-30T22:44:03.724Z,3.97
2017-08-30T22:46:32.059Z,3.17
2017-08-30T22:49:00.372Z,4.30
2017-08-30T22:51:28.698Z,4.50
2017-08-30T22:53:57.016Z,4.37
2017-08-30T22:56:25.337Z,3.97
2017-08-30T22:58:53.650Z,4.33
2017-08-30T23:01:21.974Z,4.00
2017-08-30T23:03:50.278Z,3.63
2017-08-30T23:06:18.604Z,3.43
2017-08-30T23:08:46.934Z,3.60
2017-08-30T23:11:15.279Z,3.40
2017-08-30T23:13:43.578Z,4.40
2017-08-30T23:16:11.900Z,3.50
2017-08-30T23:18:40.208Z,4.10
2017-08-30T23:21:08.532Z,4.27
2017-08-30T23:23:36.867Z,3.40
2017-08-30T23:26:05.177Z,3.30
2017-08-30T23:28:33.568Z,4.10
2017-08-30T23:31:01.874Z,3.70
2017-08-30T23:33:30.215Z,3.57
2017-08-30T23:35:58.560Z,3.53
2017-08-30T23:38:26.903Z,4.07
2017-08-30T23:40:55.216Z,3.80
2017-08-30T23:43:23.558Z,3.60
2017-08-30T23:45:51.862Z,3.70
2017-08-30T23:48:20.207Z,4.03
2017-08-30T23:50:48.517Z,4.07
2017-08-30T23:53:16.881Z,3.47
2017-08-30T23:55:45.185Z,3.90
2017-08-30T23:58:13.517Z,3.70
